Item Display Status Humidity-temperature Sensor

Elevation Above Sea Level: 3 m

 

Deployed Sensor

  • Serial Number: 20351075
  • NDBC Property Number: 43284
  • Start Date: 7/23/2020 (13:16:04 Z)
  • End Date: Currently Active
Relative Humidity [%]     6 entries per hour
Showing data from 6/14/2021 (21:00:00 Z) to 6/13/2021 (00:00:01 Z)
Previous Next [ Day | 3-Days | 7-Days ]
First Last
Prev [ Day | 3-Days | 7-Days ] Next
First Last

Start Time:     :
End Time:     :     
Time (in GMT) :00 :50 :40 :30 :20 :10
Previous Next [ Day | 3-Days | 7-Days ]
First Last
Prev [ Day | 3-Days | 7-Days ] Next
First Last


123 => good data
MM => data is determined as missing
-- => data not received/configured
Back to Top Back to Top
6/14/2021 21:00 to 20:10 86.22 85.85 87.10 87.57 87.88 86.58
6/14/2021 20:00 to 19:10 88.34 85.87 83.94 86.14 85.83 85.13
6/14/2021 19:00 to 18:10 86.54 86.54 85.69 85.69 86.66 87.16
6/14/2021 18:00 to 17:10 86.04 85.85 88.17 89.44 90.35 90.08
6/14/2021 17:00 to 16:10 90.25 89.09 88.34 89.62 90.31 92.07
6/14/2021 16:00 to 15:10 89.11 95.26 93.48 90.62 91.39 91.57
6/14/2021 15:00 to 14:10 91.28 92.13 93.56 92.44 94.89 89.87
6/14/2021 14:00 to 13:10 88.79 88.50 88.09 86.25 86.81 85.15
6/14/2021 13:00 to 12:10 87.14 85.75 87.70 88.65 86.68 92.48
6/14/2021 12:00 to 11:10 87.36 88.63 88.67 90.52 90.35 90.10
6/14/2021 11:00 to 10:10 86.60 85.87 88.30 89.73 87.47 85.27
6/14/2021 10:00 to 9:10 86.76 85.04 87.90 88.36 88.38 88.11
6/14/2021 09:00 to 8:10 87.57 86.74 86.54 87.12 88.88 89.91
6/14/2021 08:00 to 7:10 87.39 88.07 88.77 91.18 92.94 96.15
6/14/2021 07:00 to 6:10 92.19 86.76 86.10 86.60 85.64 85.87
6/14/2021 06:00 to 5:10 86.02 86.74 89.71 88.82 85.93 84.44
6/14/2021 05:00 to 4:10 84.23 83.43 82.91 84.30 83.51 82.89
6/14/2021 04:00 to 3:10 81.95 82.18 80.21 80.69 82.24 78.37
6/14/2021 03:00 to 2:10 79.72 81.44 80.46 81.98 80.75 81.89
6/14/2021 02:00 to 1:10 82.08 81.87 82.18 82.51 81.50 78.43
6/14/2021 01:00 to 0:10 78.41 81.21 81.23 81.73 82.08 78.47
6/14/2021 00:00 to 23:10 79.63 79.59 78.53 77.50 79.55 80.67
6/13/2021 23:00 to 22:10 84.03 80.61 78.76 82.31 80.69 79.88
6/13/2021 22:00 to 21:10 83.49 83.84 82.29 80.05 81.62 80.67
6/13/2021 21:00 to 20:10 81.35 79.51 80.94 81.56 84.09 84.96
6/13/2021 20:00 to 19:10 84.50 80.84 83.68 90.70 90.78 91.57
6/13/2021 19:00 to 18:10 90.10 87.39 87.26 89.73 88.11 90.00
6/13/2021 18:00 to 17:10 87.30 88.48 89.67 88.79 90.08 90.83
6/13/2021 17:00 to 16:10 90.02 92.21 88.79 87.82 87.88 88.42
6/13/2021 16:00 to 15:10 87.74 86.49 88.21 88.67 88.42 87.74
6/13/2021 15:00 to 14:10 87.55 87.88 87.68 86.91 86.12 85.91
6/13/2021 14:00 to 13:10 86.16 86.83 87.74 86.14 87.43 84.44
6/13/2021 13:00 to 12:10 85.79 89.35 87.07 87.90 87.36 88.36
6/13/2021 12:00 to 11:10 88.32 87.88 88.36 85.71 86.47 84.53
6/13/2021 11:00 to 10:10 87.72 87.43 86.85 86.06 85.69 84.59
6/13/2021 10:00 to 9:10 86.64 86.72 88.69 87.68 86.14 91.03
6/13/2021 09:00 to 8:10 94.37 94.43 97.15 95.66 95.34 93.65
6/13/2021 08:00 to 7:10 93.91 94.04 95.61 97.46 99.72 99.49
6/13/2021 07:00 to 6:10 94.16 94.00 97.79 98.43 101.05 98.27
6/13/2021 06:00 to 5:10 93.75 99.26 100.63 100.78 93.91 91.32
6/13/2021 05:00 to 4:10 89.31 89.85 90.87 93.04 92.26 95.53
6/13/2021 04:00 to 3:10 100.84 101.05 99.78 99.72 101.19 101.15
6/13/2021 03:00 to 2:10 99.06 96.67 87.26 88.82 89.93 89.42
6/13/2021 02:00 to 1:10 89.46 88.90 88.75 88.73 88.26 88.03
6/13/2021 01:00 to 0:10 88.73 88.09 88.50 89.81 91.80 90.93

 

 

 

Air Temperature [°C]     6 entries per hour
Showing data from 6/14/2021 (21:00:00 Z) to 6/13/2021 (00:00:01 Z)
Previous Next [ Day | 3-Days | 7-Days ]
First Last
Prev [ Day | 3-Days | 7-Days ] Next
First Last

Start Time:     :
End Time:     :     
Time (in GMT) :00 :50 :40 :30 :20 :10
Previous Next [ Day | 3-Days | 7-Days ]
First Last
Prev [ Day | 3-Days | 7-Days ] Next
First Last


123 => good data
MM => data is determined as missing
-- => data not received/configured
Back to Top Back to Top
6/14/2021 21:00 to 20:10 28.54 28.55 28.50 28.47 28.57 28.51
6/14/2021 20:00 to 19:10 28.49 28.59 28.59 28.55 28.68 28.60
6/14/2021 19:00 to 18:10 28.65 28.61 28.64 28.57 28.56 28.58
6/14/2021 18:00 to 17:10 28.48 28.37 28.29 28.19 28.05 28.04
6/14/2021 17:00 to 16:10 27.93 28.03 27.89 27.94 27.72 27.75
6/14/2021 16:00 to 15:10 27.56 26.99 27.73 28.02 28.00 27.89
6/14/2021 15:00 to 14:10 27.82 27.63 27.39 27.20 26.99 28.02
6/14/2021 14:00 to 13:10 28.23 28.22 28.24 28.22 28.22 28.24
6/14/2021 13:00 to 12:10 28.23 28.27 28.20 28.19 28.17 27.45
6/14/2021 12:00 to 11:10 27.70 28.21 28.19 28.17 28.01 27.76
6/14/2021 11:00 to 10:10 28.07 28.36 28.31 28.35 28.40 28.37
6/14/2021 10:00 to 9:10 28.45 28.41 28.36 28.28 28.30 28.32
6/14/2021 09:00 to 8:10 28.36 28.36 28.37 28.27 28.26 28.32
6/14/2021 08:00 to 7:10 28.38 28.25 28.20 28.03 27.81 27.49
6/14/2021 07:00 to 6:10 27.76 28.34 28.34 28.29 28.22 28.26
6/14/2021 06:00 to 5:10 28.18 28.28 28.01 28.18 28.34 28.29
6/14/2021 05:00 to 4:10 28.35 28.36 28.35 28.34 28.31 28.41
6/14/2021 04:00 to 3:10 28.39 28.41 28.41 28.46 28.50 28.48
6/14/2021 03:00 to 2:10 28.42 28.43 28.35 28.32 28.33 28.32
6/14/2021 02:00 to 1:10 28.31 28.30 28.30 28.30 28.27 28.34
6/14/2021 01:00 to 0:10 28.40 28.34 28.28 28.38 28.41 28.38
6/14/2021 00:00 to 23:10 28.37 28.42 28.46 28.52 28.53 28.41
6/13/2021 23:00 to 22:10 28.42 28.45 28.52 28.51 28.47 28.52
6/13/2021 22:00 to 21:10 28.52 28.48 28.47 28.49 28.61 28.59
6/13/2021 21:00 to 20:10 28.60 28.62 28.62 28.62 28.56 28.57
6/13/2021 20:00 to 19:10 28.65 28.84 28.69 28.07 28.01 27.85
6/13/2021 19:00 to 18:10 27.84 27.67 27.75 28.26 28.12 28.01
6/13/2021 18:00 to 17:10 28.49 28.33 28.18 28.19 28.14 28.05
6/13/2021 17:00 to 16:10 28.14 27.95 27.95 28.27 28.27 28.27
6/13/2021 16:00 to 15:10 28.31 28.29 28.25 28.16 28.15 28.14
6/13/2021 15:00 to 14:10 28.17 28.14 28.15 28.20 28.21 28.28
6/13/2021 14:00 to 13:10 28.19 28.16 28.19 28.18 28.25 28.37
6/13/2021 13:00 to 12:10 28.33 28.25 28.30 28.21 28.21 28.17
6/13/2021 12:00 to 11:10 28.26 28.35 28.36 28.36 28.37 28.47
6/13/2021 11:00 to 10:10 28.34 28.40 28.47 28.45 28.43 28.55
6/13/2021 10:00 to 9:10 28.46 28.44 28.49 28.49 28.47 28.29
6/13/2021 09:00 to 8:10 27.98 27.80 27.57 27.35 27.29 27.16
6/13/2021 08:00 to 7:10 26.97 26.99 26.56 26.42 26.29 26.41
6/13/2021 07:00 to 6:10 27.03 26.89 26.23 25.84 25.78 26.08
6/13/2021 06:00 to 5:10 26.75 26.42 25.93 26.27 27.24 27.21
6/13/2021 05:00 to 4:10 27.30 27.20 27.18 26.81 26.70 26.10
6/13/2021 04:00 to 3:10 25.64 25.38 26.21 26.37 25.75 25.82
6/13/2021 03:00 to 2:10 25.98 27.19 28.39 28.29 28.31 28.24
6/13/2021 02:00 to 1:10 28.13 28.13 28.21 28.20 28.12 28.16
6/13/2021 01:00 to 0:10 28.18 28.26 28.21 28.02 28.03 28.04